Time;durP1;ratioP1;P1;durP2;ratioP2;P2;SDS_P1;SDS_P2;PMS_P1;PMS_P2;Temp;Humidity;BMP_temperature;BMP_pressure;BME280_temperature;BME280_humidity;BME280_pressure;Samples;Min_cycle;Max_cycle;Signal;HPM_P1;HPM_P2
2023/12/20 00:01:36;;;;;;;;;;;;;;;16.64;44.37;101112.00;4959778;28;1129;-59
2023/12/20 00:04:02;;;;;;;;;;;;;;;16.12;45.59;101108.31;4964147;28;1148;-59
2023/12/20 00:06:27;;;;;;;;;;;;;;;17.11;43.60;101108.00;4951512;28;1898;-60
2023/12/20 00:08:53;;;;;;;;;;;;;;;17.28;42.89;101104.19;4977023;28;1075;-60
2023/12/20 00:11:19;;;;;;;;;;;;;;;16.49;44.83;101102.38;4957972;28;874;-59
2023/12/20 00:13:44;;;;;;;;;;;;;;;16.10;45.42;101108.44;4959493;28;1057;-59
2023/12/20 00:16:10;;;;;;;;;;;;;;;16.64;44.52;101098.72;4957823;28;1200;-60
2023/12/20 00:18:35;;;;;;;;;;;;;;;17.67;42.16;101093.44;4970018;28;1057;-59
2023/12/20 00:21:01;;;;;;;;;;;;;;;16.71;44.06;101095.63;4970761;28;1187;-59
2023/12/20 00:23:26;;;;;;;;;;;;;;;16.20;45.53;101094.56;4957819;28;1141;-58
2023/12/20 00:25:52;;;;;;;;;;;;;;;17.20;43.44;101086.09;4972883;28;1033;-59
2023/12/20 00:28:17;;;;;;;;;;;;;;;16.99;43.29;101091.06;4963303;28;1989;-61
2023/12/20 00:30:43;;;;;;;;;;;;;;;16.27;44.96;101079.94;4964167;28;1128;-59
2023/12/20 00:33:08;;;;;;;;;;;;;;;16.43;45.06;101090.41;4964149;28;1164;-57
2023/12/20 00:35:34;;;;;;;;;;;;;;;17.62;42.32;101080.47;4976455;28;1064;-51
2023/12/20 00:37:59;;;;;;;;;;;;;;;16.72;44.25;101073.41;4966935;28;1081;-55
2023/12/20 00:40:25;;;;;;;;;;;;;;;16.22;45.45;101076.72;4964370;28;1135;-55
2023/12/20 00:42:50;;;;;;;;;;;;;;;16.65;44.70;101078.28;4980414;28;1175;-54
2023/12/20 00:45:16;;;;;;;;;;;;;;;17.53;42.34;101067.84;4966873;28;1127;-53
2023/12/20 00:47:41;;;;;;;;;;;;;;;16.58;44.52;101067.22;4967740;28;1898;-54
2023/12/20 00:50:07;;;;;;;;;;;;;;;16.08;45.68;101062.56;4963765;28;1065;-52
2023/12/20 00:52:32;;;;;;;;;;;;;;;16.61;44.82;101071.50;4967904;28;1248;-53
2023/12/20 00:54:58;;;;;;;;;;;;;;;17.45;42.61;101060.41;4973044;28;1117;-55
2023/12/20 00:57:23;;;;;;;;;;;;;;;16.54;44.59;101068.41;4960751;28;1235;-51
2023/12/20 00:59:49;;;;;;;;;;;;;;;16.07;45.53;101052.03;4978871;28;1045;-52
2023/12/20 01:02:14;;;;;;;;;;;;;;;17.20;43.35;101056.00;4976055;28;1147;-53
2023/12/20 01:04:40;;;;;;;;;;;;;;;17.01;43.19;101050.16;4966495;28;1176;-52
2023/12/20 01:07:05;;;;;;;;;;;;;;;16.34;44.70;101046.72;4967593;28;1978;-54
2023/12/20 01:09:31;;;;;;;;;;;;;;;15.98;45.62;101037.56;4959860;28;1176;-52
2023/12/20 01:11:56;;;;;;;;;;;;;;;17.32;42.89;101033.00;4972207;28;1045;-55
2023/12/20 01:14:22;;;;;;;;;;;;;;;17.06;43.28;101041.84;4962910;28;1089;-52
2023/12/20 01:16:47;;;;;;;;;;;;;;;16.31;44.68;101038.97;4972620;28;1400;-54
2023/12/20 01:19:13;;;;;;;;;;;;;;;16.12;45.37;101040.19;4961364;28;1052;-54
2023/12/20 01:21:41;;;;;;;;;;;;;;;17.53;42.44;101040.41;4972430;28;1112;-55
2023/12/20 01:24:07;;;;;;;;;;;;;;;16.94;43.37;101030.28;4960747;28;1044;-54
2023/12/20 01:26:32;;;;;;;;;;;;;;;16.35;44.56;101027.16;4967793;28;1906;-53
2023/12/20 01:28:58;;;;;;;;;;;;;;;16.02;45.34;101026.69;4960382;28;1208;-49
2023/12/20 01:31:23;;;;;;;;;;;;;;;16.98;43.71;101020.28;4960376;28;1224;-53
2023/12/20 01:33:49;;;;;;;;;;;;;;;17.32;42.60;101028.53;4959716;28;1072;-55
2023/12/20 01:36:14;;;;;;;;;;;;;;;16.55;44.40;101016.16;4972454;28;1184;-53
2023/12/20 01:38:40;;;;;;;;;;;;;;;16.08;45.39;101020.09;4977675;28;1184;-53
2023/12/20 01:41:05;;;;;;;;;;;;;;;17.34;42.86;101009.81;4929738;29;1161;-53
2023/12/20 01:43:31;;;;;;;;;;;;;;;16.96;43.48;101012.41;4921231;29;1078;-52
2023/12/20 01:45:59;;;;;;;;;;;;;;;16.28;45.00;101000.19;4932871;29;1058;-53
2023/12/20 01:48:25;;;;;;;;;;;;;;;16.00;45.72;100986.13;4922726;29;1985;-54
2023/12/20 01:50:51;;;;;;;;;;;;;;;17.44;42.49;100986.06;4941068;29;1070;-56
2023/12/20 01:53:16;;;;;;;;;;;;;;;16.95;43.23;100984.13;4927034;29;1197;-55
2023/12/20 01:55:42;;;;;;;;;;;;;;;16.32;44.64;100974.28;4928632;29;1078;-56
2023/12/20 01:58:08;;;;;;;;;;;;;;;16.08;45.38;100977.63;4925944;29;1276;-51
2023/12/20 02:00:33;;;;;;;;;;;;;;;17.52;42.36;100973.03;4922344;29;1062;-56
2023/12/20 02:03:00;;;;;;;;;;;;;;;16.89;43.26;100965.97;4932258;29;1066;-55
2023/12/20 02:05:29;;;;;;;;;;;;;;;16.24;44.96;100955.38;4933756;29;1129;-54
2023/12/20 02:07:55;;;;;;;;;;;;;;;16.18;45.18;100946.03;4939821;29;1985;-53
2023/12/20 02:10:20;;;;;;;;;;;;;;;17.59;42.16;100950.34;4928032;29;1138;-56
2023/12/20 02:12:46;;;;;;;;;;;;;;;16.87;43.25;100950.13;4940200;29;1173;-55
2023/12/20 02:15:11;;;;;;;;;;;;;;;16.28;44.83;100939.13;4933706;29;1061;-54
2023/12/20 02:17:37;;;;;;;;;;;;;;;16.65;44.39;100948.13;4921095;29;1148;-54
2023/12/20 02:20:02;;;;;;;;;;;;;;;17.48;42.28;100929.03;4932029;29;1078;-55
2023/12/20 02:22:28;;;;;;;;;;;;;;;16.55;44.10;100937.31;4921143;29;1061;-49
2023/12/20 02:24:53;;;;;;;;;;;;;;;16.10;44.91;100925.31;4920992;29;1067;-54
2023/12/20 02:27:19;;;;;;;;;;;;;;;17.32;42.70;100932.81;4928689;29;1910;-54
2023/12/20 02:29:44;;;;;;;;;;;;;;;17.11;42.74;100928.13;4939409;29;1379;-54
2023/12/20 02:32:10;;;;;;;;;;;;;;;16.39;44.46;100919.81;4917398;29;1225;-57
2023/12/20 02:34:35;;;;;;;;;;;;;;;16.08;45.14;100911.28;4920943;29;1156;-57
2023/12/20 02:37:01;;;;;;;;;;;;;;;17.08;43.32;100911.50;4922713;29;1043;-55
2023/12/20 02:39:26;;;;;;;;;;;;;;;17.46;42.00;100913.19;4939335;28;1097;-54
2023/12/20 02:41:52;;;;;;;;;;;;;;;16.61;43.77;100914.78;4960191;28;1088;-55
2023/12/20 02:44:17;;;;;;;;;;;;;;;16.06;45.16;100899.09;4959092;28;1133;-54
2023/12/20 02:46:43;;;;;;;;;;;;;;;17.36;42.51;100901.53;4971126;28;1936;-55
2023/12/20 02:49:08;;;;;;;;;;;;;;;17.12;42.78;100900.56;4952042;28;1472;-54
2023/12/20 02:51:34;;;;;;;;;;;;;;;16.39;44.63;100903.03;4970296;28;1003;-54
2023/12/20 02:53:59;;;;;;;;;;;;;;;16.30;44.90;100903.69;4968875;28;1057;-53
2023/12/20 02:56:25;;;;;;;;;;;;;;;17.68;41.72;100890.31;4971071;28;1140;-56
2023/12/20 02:58:50;;;;;;;;;;;;;;;16.80;43.38;100894.91;4969673;28;1030;-54
2023/12/20 03:01:16;;;;;;;;;;;;;;;16.26;44.82;100903.88;4964397;28;1155;-54
2023/12/20 03:03:41;;;;;;;;;;;;;;;16.70;44.08;100903.50;4974022;28;1157;-54
2023/12/20 03:06:07;;;;;;;;;;;;;;;17.51;41.90;100904.88;4973865;28;1136;-52
2023/12/20 03:08:32;;;;;;;;;;;;;;;16.60;44.05;100900.66;4968774;28;1009;-55
2023/12/20 03:11:01;;;;;;;;;;;;;;;16.15;45.15;100903.75;4973424;28;1115;-55
2023/12/20 03:13:26;;;;;;;;;;;;;;;17.05;43.30;100898.44;4968922;28;1068;-56
2023/12/20 03:15:52;;;;;;;;;;;;;;;17.40;42.13;100897.66;4962449;28;1295;-55
2023/12/20 03:18:18;;;;;;;;;;;;;;;16.58;43.79;100893.78;4972234;28;1006;-56
2023/12/20 03:20:43;;;;;;;;;;;;;;;16.12;44.86;100893.34;4973063;28;1119;-52
2023/12/20 03:23:09;;;;;;;;;;;;;;;17.13;43.06;100894.28;4968319;28;902;-53
2023/12/20 03:25:34;;;;;;;;;;;;;;;17.31;42.33;100891.25;4973610;28;1136;-51
2023/12/20 03:28:00;;;;;;;;;;;;;;;16.50;44.04;100892.50;4968336;28;1986;-52
2023/12/20 03:30:25;;;;;;;;;;;;;;;16.19;44.66;100891.13;4973486;28;1139;-51
2023/12/20 03:32:51;;;;;;;;;;;;;;;17.62;41.80;100888.09;4968340;28;1072;-56
2023/12/20 03:35:16;;;;;;;;;;;;;;;16.76;43.33;100887.16;4977227;28;1044;-52
2023/12/20 03:37:42;;;;;;;;;;;;;;;16.19;44.68;100888.47;4966449;28;1129;-53
2023/12/20 03:40:07;;;;;;;;;;;;;;;15.93;45.26;100883.13;4965562;28;1151;-52
2023/12/20 03:42:33;;;;;;;;;;;;;;;17.46;42.14;100881.28;4968334;28;1088;-52
2023/12/20 03:44:58;;;;;;;;;;;;;;;17.02;42.79;100881.75;4974117;28;1101;-56
2023/12/20 03:47:24;;;;;;;;;;;;;;;16.35;44.21;100875.84;4958420;29;1914;-51
2023/12/20 03:49:49;;;;;;;;;;;;;;;16.40;44.37;100870.19;4948655;28;1072;-51
2023/12/20 03:52:15;;;;;;;;;;;;;;;17.69;41.71;100870.69;4976200;28;1112;-55
2023/12/20 03:54:42;;;;;;;;;;;;;;;16.79;43.30;100875.44;4973408;28;1144;-56
2023/12/20 03:57:08;;;;;;;;;;;;;;;16.22;44.61;100872.34;4968119;28;1041;-54
2023/12/20 03:59:36;;;;;;;;;;;;;;;16.46;44.57;100879.53;4964720;28;1148;-53
2023/12/20 04:02:02;;;;;;;;;;;;;;;17.67;41.43;100861.97;4956262;28;1401;-59
2023/12/20 04:04:27;;;;;;;;;;;;;;;16.71;43.59;100872.50;4958445;28;1064;-53
2023/12/20 04:06:53;;;;;;;;;;;;;;;16.26;44.63;100861.41;4962343;28;1907;-54
2023/12/20 04:09:18;;;;;;;;;;;;;;;17.60;41.84;100855.44;4966033;28;1152;-57
2023/12/20 04:11:44;;;;;;;;;;;;;;;17.01;42.73;100855.28;4974968;28;1153;-54
2023/12/20 04:14:10;;;;;;;;;;;;;;;16.39;44.39;100857.88;4956258;28;2587;-52
2023/12/20 04:16:35;;;;;;;;;;;;;;;15.98;45.33;100855.34;4965797;28;1898;-52
2023/12/20 04:19:01;;;;;;;;;;;;;;;17.35;42.40;100850.16;4960897;28;1839;-54
2023/12/20 04:21:27;;;;;;;;;;;;;;;16.95;42.88;100850.44;4961270;28;1848;-51
2023/12/20 04:23:52;;;;;;;;;;;;;;;16.30;44.43;100855.88;4971079;28;2091;-51
2023/12/20 04:26:18;;;;;;;;;;;;;;;16.86;43.61;100849.28;4964860;28;2157;-51
2023/12/20 04:28:43;;;;;;;;;;;;;;;17.50;41.72;100848.16;4979468;28;1085;-51
2023/12/20 04:31:09;;;;;;;;;;;;;;;16.65;43.79;100845.41;4979841;28;981;-54
2023/12/20 04:33:34;;;;;;;;;;;;;;;16.18;44.85;100845.19;4969437;28;1153;-53
2023/12/20 04:36:00;;;;;;;;;;;;;;;16.55;44.35;100848.84;4965409;28;1010;-52
2023/12/20 04:38:26;;;;;;;;;;;;;;;17.50;41.84;100841.97;4967042;28;1137;-53
2023/12/20 04:40:51;;;;;;;;;;;;;;;16.55;43.71;100843.53;4964745;28;1346;-54
2023/12/20 04:43:17;;;;;;;;;;;;;;;16.13;45.06;100832.22;4967227;28;883;-56
2023/12/20 04:45:42;;;;;;;;;;;;;;;16.52;44.15;100836.63;4966926;28;1125;-53
2023/12/20 04:48:08;;;;;;;;;;;;;;;17.67;41.63;100837.19;4980132;28;1906;-59
2023/12/20 04:50:33;;;;;;;;;;;;;;;16.71;43.25;100830.84;4977310;28;1109;-59
2023/12/20 04:52:59;;;;;;;;;;;;;;;16.24;44.48;100834.13;4955453;28;867;-57
2023/12/20 04:55:24;;;;;;;;;;;;;;;16.31;44.78;100836.34;4960664;28;1093;-55
2023/12/20 04:57:50;;;;;;;;;;;;;;;17.66;41.36;100822.19;4960591;28;1116;-53
2023/12/20 05:00:15;;;;;;;;;;;;;;;16.73;43.09;100830.72;4974150;28;1041;-61
2023/12/20 05:02:41;;;;;;;;;;;;;;;16.13;44.44;100834.03;4972004;28;1014;-58
2023/12/20 05:05:07;;;;;;;;;;;;;;;17.20;42.73;100832.69;4960319;28;1029;-58
2023/12/20 05:07:32;;;;;;;;;;;;;;;17.09;42.45;100823.72;4959225;28;1921;-52
2023/12/20 05:09:58;;;;;;;;;;;;;;;16.35;44.26;100830.69;4957319;28;995;-54
2023/12/20 05:12:23;;;;;;;;;;;;;;;16.15;44.70;100830.31;4960308;28;1070;-57
2023/12/20 05:14:49;;;;;;;;;;;;;;;17.61;41.78;100818.09;4958891;28;1042;-55
2023/12/20 05:17:14;;;;;;;;;;;;;;;16.74;43.07;100820.00;4959823;28;1062;-56
2023/12/20 05:19:40;;;;;;;;;;;;;;;16.24;44.47;100814.69;4947387;28;1035;-58
2023/12/20 05:22:05;;;;;;;;;;;;;;;16.60;43.92;100814.84;4960088;28;1283;-53
2023/12/20 05:24:31;;;;;;;;;;;;;;;17.45;41.61;100802.44;4959961;28;1099;-58
2023/12/20 05:26:56;;;;;;;;;;;;;;;17.20;42.68;100814.09;4959681;28;1975;-60
2023/12/20 05:29:22;;;;;;;;;;;;;;;16.55;43.85;100819.63;4959797;28;880;-60
2023/12/20 05:31:47;;;;;;;;;;;;;;;15.66;45.58;100811.47;4960080;28;1039;-60
2023/12/20 05:34:13;;;;;;;;;;;;;;;15.30;45.44;100813.88;4967279;28;1069;-59
2023/12/20 05:36:38;;;;;;;;;;;;;;;16.65;44.11;100818.84;4977001;28;1471;-57
2023/12/20 05:39:04;;;;;;;;;;;;;;;16.11;44.68;100806.75;4957861;28;1061;-54
2023/12/20 05:41:32;;;;;;;;;;;;;;;15.38;45.53;100815.16;4974169;28;1125;-58
2023/12/20 05:43:58;;;;;;;;;;;;;;;16.09;45.64;100811.31;4958310;28;1158;-55
2023/12/20 05:46:24;;;;;;;;;;;;;;;16.59;43.77;100818.44;4960276;28;1911;-56
2023/12/20 05:48:49;;;;;;;;;;;;;;;15.59;45.55;100807.56;4954132;28;1197;-52
2023/12/20 05:51:15;;;;;;;;;;;;;;;17.31;42.76;100818.59;4959621;28;1072;-48
2023/12/20 05:53:40;;;;;;;;;;;;;;;16.09;44.67;100824.56;4957040;28;1129;-60
2023/12/20 05:56:06;;;;;;;;;;;;;;;15.67;46.19;100813.19;4959709;28;1089;-59
2023/12/20 05:58:32;;;;;;;;;;;;;;;17.03;42.70;100805.53;4959360;28;1209;-59
2023/12/20 06:00:57;;;;;;;;;;;;;;;15.69;45.23;100813.09;4959599;28;1038;-53
2023/12/20 06:03:23;;;;;;;;;;;;;;;15.43;45.37;100813.88;4957323;28;1133;-52
2023/12/20 06:05:48;;;;;;;;;;;;;;;15.11;44.95;100811.59;4959408;28;1636;-57
2023/12/20 06:08:14;;;;;;;;;;;;;;;15.06;44.85;100811.88;4959179;28;1976;-57
2023/12/20 06:10:40;;;;;;;;;;;;;;;16.47;44.47;100817.50;4959495;28;1130;-58
2023/12/20 06:13:06;;;;;;;;;;;;;;;16.11;44.96;100815.56;4958331;28;1239;-58
2023/12/20 06:15:32;;;;;;;;;;;;;;;15.40;45.88;100815.88;4958978;28;1089;-58
2023/12/20 06:17:57;;;;;;;;;;;;;;;16.46;44.77;100814.03;4958711;28;1161;-60
2023/12/20 06:20:23;;;;;;;;;;;;;;;16.17;44.92;100814.25;4958591;28;1224;-55
2023/12/20 06:22:48;;;;;;;;;;;;;;;15.48;45.48;100816.22;4952084;28;1102;-58
2023/12/20 06:25:14;;;;;;;;;;;;;;;17.44;42.49;100813.19;4960231;28;1101;-59
2023/12/20 06:27:41;;;;;;;;;;;;;;;15.96;45.10;100813.94;4957774;28;1922;-59
2023/12/20 06:30:06;;;;;;;;;;;;;;;15.47;45.58;100822.47;4960188;28;1026;-59
2023/12/20 06:32:32;;;;;;;;;;;;;;;15.23;45.36;100811.72;4955200;28;1304;-59
2023/12/20 06:34:58;;;;;;;;;;;;;;;15.88;45.74;100810.00;4957487;29;1166;-62
2023/12/20 06:37:23;;;;;;;;;;;;;;;16.40;44.29;100804.69;4955847;28;1401;-61
2023/12/20 06:39:49;;;;;;;;;;;;;;;15.52;45.52;100809.78;4957867;29;1236;-59
2023/12/20 06:42:14;;;;;;;;;;;;;;;15.22;45.45;100805.56;4954012;28;1296;-58
2023/12/20 06:44:40;;;;;;;;;;;;;;;15.27;46.04;100803.47;4952111;28;1303;-58
2023/12/20 06:47:05;;;;;;;;;;;;;;;17.23;43.14;100806.72;4953664;29;1910;-56
2023/12/20 06:49:31;;;;;;;;;;;;;;;15.76;45.33;100801.09;4956175;28;1122;-61
2023/12/20 06:51:56;;;;;;;;;;;;;;;15.70;46.37;100798.84;4955161;29;1178;-58
2023/12/20 06:54:22;;;;;;;;;;;;;;;16.59;44.25;100802.50;4957254;28;1164;-56
2023/12/20 06:56:47;;;;;;;;;;;;;;;15.50;45.55;100790.47;4964525;28;1141;-58
2023/12/20 06:59:13;;;;;;;;;;;;;;;15.45;46.40;100789.09;4947877;28;1054;-58
2023/12/20 07:01:38;;;;;;;;;;;;;;;16.36;44.39;100776.66;4958437;28;1220;-53
2023/12/20 07:04:04;;;;;;;;;;;;;;;15.48;46.10;100779.09;4955611;28;1021;-57
2023/12/20 07:06:29;;;;;;;;;;;;;;;15.13;45.59;100777.03;4964089;28;1902;-54
2023/12/20 07:08:55;;;;;;;;;;;;;;;15.76;46.06;100782.53;4947729;28;1057;-53
2023/12/20 07:11:21;;;;;;;;;;;;;;;17.29;42.69;100773.50;4958140;28;1061;-51
2023/12/20 07:13:46;;;;;;;;;;;;;;;15.71;45.82;100776.69;4958167;28;1109;-57
2023/12/20 07:16:13;;;;;;;;;;;;;;;15.97;46.14;100779.34;4957626;28;1125;-57
2023/12/20 07:18:38;;;;;;;;;;;;;;;16.77;43.59;100789.69;4958443;28;907;-54
2023/12/20 07:21:04;;;;;;;;;;;;;;;15.69;45.40;100775.09;4958538;28;1070;-54
2023/12/20 07:23:29;;;;;;;;;;;;;;;15.41;45.34;100773.38;4958212;28;1041;-55
2023/12/20 07:25:55;;;;;;;;;;;;;;;16.02;45.60;100773.72;4958790;28;1141;-51
2023/12/20 07:28:20;;;;;;;;;;;;;;;16.12;45.10;100766.81;4957967;28;1914;-55
2023/12/20 07:30:46;;;;;;;;;;;;;;;15.34;45.72;100756.19;4958204;28;1029;-52
2023/12/20 07:33:12;;;;;;;;;;;;;;;15.85;46.17;100759.81;4958271;28;1077;-54
2023/12/20 07:35:37;;;;;;;;;;;;;;;17.47;42.31;100749.97;4955245;28;1038;-55
2023/12/20 07:38:03;;;;;;;;;;;;;;;15.77;45.61;100748.88;4957118;28;1261;-54
2023/12/20 07:40:29;;;;;;;;;;;;;;;16.07;45.93;100747.72;4951481;28;1174;-51
2023/12/20 07:42:54;;;;;;;;;;;;;;;16.30;44.67;100750.53;4953660;28;1141;-52
2023/12/20 07:45:20;;;;;;;;;;;;;;;15.56;45.90;100749.44;4956279;28;1033;-49
2023/12/20 07:47:51;;;;;;;;;;;;;;;15.29;45.93;100745.91;4952965;28;1977;-49
2023/12/20 07:50:16;;;;;;;;;;;;;;;15.11;45.30;100742.72;4957799;28;1483;-49
2023/12/20 07:52:42;;;;;;;;;;;;;;;16.24;44.98;100748.31;4958764;29;1149;-49
2023/12/20 07:55:07;;;;;;;;;;;;;;;15.62;46.12;100745.50;4961017;28;920;-48
2023/12/20 07:57:33;;;;;;;;;;;;;;;15.22;46.22;100744.63;4964961;28;1307;-54
2023/12/20 07:59:59;;;;;;;;;;;;;;;17.27;42.98;100730.22;4966869;28;1041;-50
2023/12/20 08:02:24;;;;;;;;;;;;;;;15.85;45.66;100733.28;4955072;28;1129;-46
2023/12/20 08:04:50;;;;;;;;;;;;;;;15.34;46.14;100728.84;4952926;28;1029;-44
2023/12/20 08:07:16;;;;;;;;;;;;;;;15.90;46.43;100727.66;4958697;28;1902;-51
2023/12/20 08:09:43;;;;;;;;;;;;;;;17.62;42.05;100712.50;4957588;28;1212;-47
2023/12/20 08:12:09;;;;;;;;;;;;;;;15.93;45.48;100716.00;4958863;28;1178;-48
2023/12/20 08:14:35;;;;;;;;;;;;;;;15.37;45.71;100707.41;4960269;28;965;-48
2023/12/20 08:17:00;;;;;;;;;;;;;;;15.24;46.59;100702.97;4965221;28;1219;-48
2023/12/20 08:19:26;;;;;;;;;;;;;;;17.22;43.16;100697.84;4952655;28;1056;-46
2023/12/20 08:21:51;;;;;;;;;;;;;;;15.81;45.54;100702.66;4955389;28;1066;-45
2023/12/20 08:24:17;;;;;;;;;;;;;;;15.41;46.78;100703.63;4959419;28;942;-49
2023/12/20 08:26:42;;;;;;;;;;;;;;;17.55;42.44;100698.84;4959576;28;1897;-49
2023/12/20 08:29:08;;;;;;;;;;;;;;;15.97;45.44;100691.78;4959446;28;1025;-46
2023/12/20 08:31:34;;;;;;;;;;;;;;;15.63;46.51;100684.41;4959094;28;841;-46
2023/12/20 08:33:59;;;;;;;;;;;;;;;16.81;43.53;100674.28;4960388;28;1093;-52
2023/12/20 08:36:25;;;;;;;;;;;;;;;15.58;46.05;100667.13;4952812;28;1276;-49
2023/12/20 08:38:50;;;;;;;;;;;;;;;16.76;44.44;100671.13;4960500;28;1089;-47
2023/12/20 08:41:17;;;;;;;;;;;;;;;16.75;43.63;100669.41;4958615;29;1331;-49
2023/12/20 08:43:42;;;;;;;;;;;;;;;15.71;45.76;100656.50;4954449;28;796;-49
2023/12/20 08:46:09;;;;;;;;;;;;;;;15.43;45.86;100646.88;4947719;28;1256;-52
2023/12/20 08:48:35;;;;;;;;;;;;;;;15.30;46.20;100652.19;4958829;29;1903;-53
2023/12/20 08:51:00;;;;;;;;;;;;;;;17.06;43.31;100642.31;4960806;28;1049;-52
2023/12/20 08:53:26;;;;;;;;;;;;;;;15.83;45.92;100645.00;4960070;28;1118;-51
2023/12/20 08:55:52;;;;;;;;;;;;;;;15.40;45.73;100632.97;4960604;28;850;-52
2023/12/20 08:58:17;;;;;;;;;;;;;;;15.24;45.46;100630.56;4950180;28;1049;-47
2023/12/20 09:00:43;;;;;;;;;;;;;;;16.92;44.07;100628.28;4959138;28;926;-49
2023/12/20 09:03:09;;;;;;;;;;;;;;;16.03;45.49;100629.50;4958335;28;954;-46
2023/12/20 09:05:34;;;;;;;;;;;;;;;15.52;45.93;100618.88;4958518;28;981;-48
2023/12/20 09:08:00;;;;;;;;;;;;;;;15.54;46.32;100621.41;4967418;28;1983;-47
2023/12/20 09:10:25;;;;;;;;;;;;;;;16.66;44.42;100607.22;4960322;28;1128;-50
2023/12/20 09:12:51;;;;;;;;;;;;;;;15.57;46.12;100604.44;4957760;28;1138;-48
2023/12/20 09:15:16;;;;;;;;;;;;;;;15.49;45.91;100603.19;4951043;29;1023;-52
2023/12/20 09:17:43;;;;;;;;;;;;;;;17.45;42.99;100592.34;4952968;28;1343;-49
2023/12/20 09:20:09;;;;;;;;;;;;;;;15.98;45.19;100584.72;4947784;28;1019;-45
2023/12/20 09:22:34;;;;;;;;;;;;;;;15.60;45.38;100575.91;4955675;28;1065;-49
2023/12/20 09:25:01;;;;;;;;;;;;;;;15.91;46.17;100578.16;4957376;28;1034;-46
2023/12/20 09:27:27;;;;;;;;;;;;;;;17.40;42.68;100572.41;4954201;28;1910;-48
2023/12/20 09:29:53;;;;;;;;;;;;;;;15.95;45.42;100566.34;4958249;28;994;-47
2023/12/20 09:32:20;;;;;;;;;;;;;;;15.60;45.45;100565.28;4957934;28;1026;-50
2023/12/20 09:34:45;;;;;;;;;;;;;;;16.62;44.77;100556.13;4958872;28;1204;-49
2023/12/20 09:37:11;;;;;;;;;;;;;;;16.68;43.94;100554.84;4960013;28;1113;-47
2023/12/20 09:39:36;;;;;;;;;;;;;;;15.80;45.41;100547.09;4959664;28;1159;-46
2023/12/20 09:42:05;;;;;;;;;;;;;;;15.56;45.57;100542.63;4959964;28;1212;-50
2023/12/20 09:44:31;;;;;;;;;;;;;;;15.36;45.43;100542.25;4959404;28;902;-48
2023/12/20 09:46:57;;;;;;;;;;;;;;;15.93;45.67;100533.78;4959491;28;1894;-47
2023/12/20 09:49:23;;;;;;;;;;;;;;;16.50;44.50;100525.19;4958964;28;925;-47
2023/12/20 09:51:50;;;;;;;;;;;;;;;15.64;45.92;100518.19;4959439;28;1112;-52
2023/12/20 09:54:16;;;;;;;;;;;;;;;16.51;45.33;100519.78;4957647;28;973;-49
2023/12/20 09:56:41;;;;;;;;;;;;;;;16.50;44.52;100512.78;4963886;28;1100;-48
2023/12/20 09:59:07;;;;;;;;;;;;;;;15.62;46.15;100502.41;4955141;28;1131;-46
2023/12/20 10:01:33;;;;;;;;;;;;;;;17.20;43.36;100500.41;4953289;28;1203;-51
2023/12/20 10:03:58;;;;;;;;;;;;;;;15.88;45.53;100494.31;4955410;28;1209;-54
2023/12/20 10:06:24;;;;;;;;;;;;;;;15.59;45.78;100489.38;4957948;28;1910;-47
2023/12/20 10:08:49;;;;;;;;;;;;;;;15.55;46.33;100499.34;4959463;28;1280;-49
2023/12/20 10:11:15;;;;;;;;;;;;;;;17.57;42.56;100493.91;4959391;28;1106;-47
2023/12/20 10:13:41;;;;;;;;;;;;;;;16.09;45.31;100490.22;4954054;28;1129;-48
2023/12/20 10:16:07;;;;;;;;;;;;;;;15.63;45.89;100488.16;4956521;28;914;-49
2023/12/20 10:18:33;;;;;;;;;;;;;;;15.32;45.70;100493.06;4958292;28;1189;-49
2023/12/20 10:20:58;;;;;;;;;;;;;;;17.24;43.25;100485.91;4957068;28;1038;-48
2023/12/20 10:23:24;;;;;;;;;;;;;;;15.86;45.68;100480.34;4958259;28;1174;-54
2023/12/20 10:25:56;;;;;;;;;;;;;;;15.49;45.95;100473.28;4957611;28;1015;-50
2023/12/20 10:28:23;;;;;;;;;;;;;;;17.63;42.51;100461.53;4945624;28;1981;-55
2023/12/20 10:30:49;;;;;;;;;;;;;;;16.11;45.18;100467.94;4958359;28;1100;-49
2023/12/20 10:33:27;;;;;;;;;;;;;;;15.69;45.87;100456.88;5047086;27;1439991;-52
2023/12/20 10:35:52;;;;;;;;;;;;;;;15.52;45.19;100448.34;5081093;28;993;-52
2023/12/20 10:38:18;;;;;;;;;;;;;;;16.15;45.57;100447.28;5089523;28;1163;-52
2023/12/20 10:40:44;;;;;;;;;;;;;;;16.81;43.93;100448.47;5083271;28;913;-51
2023/12/20 10:43:10;;;;;;;;;;;;;;;15.76;46.00;100437.75;5086856;28;1144;-53
2023/12/20 10:45:36;;;;;;;;;;;;;;;15.68;46.19;100437.47;5072458;28;1083;-50
2023/12/20 10:48:01;;;;;;;;;;;;;;;17.53;42.67;100431.31;5092244;28;1330;-54
2023/12/20 10:50:28;;;;;;;;;;;;;;;16.10;45.28;100429.06;5090485;28;862;-51
2023/12/20 10:52:55;;;;;;;;;;;;;;;15.69;45.57;100417.94;5084056;28;1986;-52
2023/12/20 10:55:23;;;;;;;;;;;;;;;15.43;45.72;100420.72;5083201;28;1215;-50
2023/12/20 10:57:52;;;;;;;;;;;;;;;15.55;45.56;100417.16;5069323;28;1092;-53
2023/12/20 11:00:18;;;;;;;;;;;;;;;17.37;43.33;100412.16;5088680;28;1094;-52
2023/12/20 11:02:44;;;;;;;;;;;;;;;16.05;45.44;100417.13;5089769;28;1068;-52
2023/12/20 11:05:27;;;;;;;;;;;;;;;16.17;46.22;100410.88;5086493;28;1007;-54
2023/12/20 11:08:04;;;;;;;;;;;;;;;16.36;45.24;100406.78;5082902;28;974;-51
2023/12/20 11:10:31;;;;;;;;;;;;;;;16.16;46.38;100402.06;5069859;28;1130;-52
2023/12/20 11:13:09;;;;;;;;;;;;;;;17.46;42.69;100397.25;5069887;28;1913;-50
2023/12/20 11:15:35;;;;;;;;;;;;;;;16.10;45.60;100391.09;5085639;28;927;-54
2023/12/20 11:18:01;;;;;;;;;;;;;;;15.77;45.32;100393.50;5085379;28;1040;-47
2023/12/20 11:20:47;;;;;;;;;;;;;;;17.11;43.97;100393.00;5067117;28;1199;-53
2023/12/20 11:23:12;;;;;;;;;;;;;;;16.18;45.45;100387.84;5088240;28;1500;-54
2023/12/20 11:25:48;;;;;;;;;;;;;;;17.50;43.00;100376.56;5073453;28;1187;-56
2023/12/20 11:28:13;;;;;;;;;;;;;;;17.23;43.20;100378.72;5083698;28;1226;-55
2023/12/20 11:30:42;;;;;;;;;;;;;;;16.23;44.90;100386.50;5083797;28;1063;-50
2023/12/20 11:33:08;;;;;;;;;;;;;;;16.01;45.04;100366.09;5082892;28;1888;-53
2023/12/20 11:35:35;;;;;;;;;;;;;;;17.45;43.25;100368.13;5085155;28;1067;-51
2023/12/20 11:38:00;;;;;;;;;;;;;;;16.25;45.29;100365.16;5088508;28;971;-54
2023/12/20 11:40:26;;;;;;;;;;;;;;;15.88;45.32;100360.88;5079913;28;1114;-48
2023/12/20 11:42:53;;;;;;;;;;;;;;;17.47;43.30;100358.19;5086942;28;1075;-48
2023/12/20 11:45:21;;;;;;;;;;;;;;;16.23;45.33;100352.00;5071526;28;1243;-53
2023/12/20 11:47:47;;;;;;;;;;;;;;;17.91;42.10;100346.59;5066604;28;993;-53
2023/12/20 11:50:13;;;;;;;;;;;;;;;17.57;42.28;100345.81;5070101;28;1310;-55
2023/12/20 11:52:39;;;;;;;;;;;;;;;16.55;44.38;100342.47;5072910;28;1967;-53
2023/12/20 11:55:05;;;;;;;;;;;;;;;16.13;45.01;100338.59;5074753;28;1330;-55
2023/12/20 11:57:31;;;;;;;;;;;;;;;17.16;43.89;100326.19;5071777;28;1057;-51
2023/12/20 11:59:56;;;;;;;;;;;;;;;16.40;44.95;100323.28;5067822;28;1023;-54
2023/12/20 12:02:23;;;;;;;;;;;;;;;16.01;45.43;100321.84;5047258;28;993;-53
2023/12/20 12:04:50;;;;;;;;;;;;;;;16.20;45.50;100317.75;5068731;28;976;-52
2023/12/20 12:07:16;;;;;;;;;;;;;;;16.67;44.84;100308.78;5065530;28;860;-51
2023/12/20 12:09:42;;;;;;;;;;;;;;;16.06;45.64;100304.72;5071683;28;1207;-50
2023/12/20 12:12:08;;;;;;;;;;;;;;;17.16;43.93;100303.13;5057732;28;1914;-54
2023/12/20 12:14:35;;;;;;;;;;;;;;;16.49;44.87;100293.38;5073487;28;924;-50
2023/12/20 12:17:00;;;;;;;;;;;;;;;16.55;45.54;100289.34;5076616;28;946;-49
2023/12/20 12:19:26;;;;;;;;;;;;;;;17.66;42.40;100287.50;5074996;28;849;-51
2023/12/20 12:22:04;;;;;;;;;;;;;;;16.37;44.96;100281.91;5077848;28;1055;-54
2023/12/20 12:24:30;;;;;;;;;;;;;;;15.91;45.54;100284.53;5077656;28;1146;-49
2023/12/20 12:26:57;;;;;;;;;;;;;;;17.18;44.14;100284.38;5067354;28;1076;-48
2023/12/20 12:29:24;;;;;;;;;;;;;;;16.41;44.76;100274.53;5073265;28;1088;-61
2023/12/20 12:31:50;;;;;;;;;;;;;;;15.99;45.22;100277.81;5075155;28;1913;-55
2023/12/20 12:34:16;;;;;;;;;;;;;;;17.12;44.28;100269.78;5077506;28;1062;-51
2023/12/20 12:36:41;;;;;;;;;;;;;;;16.34;45.10;100262.72;5075855;28;1031;-56
2023/12/20 12:39:07;;;;;;;;;;;;;;;15.90;45.25;100264.28;5075410;28;1056;-52
2023/12/20 12:41:32;;;;;;;;;;;;;;;17.60;43.21;100268.44;5066725;28;1223;-54